sensor_id;sensor_type;location;lat;lon;timestamp;temperature;humidity
34646;DHT22;20857;47.808;12.482;2022-07-29T00:01:42;19.40;99.90
34646;DHT22;20857;47.808;12.482;2022-07-29T00:04:08;19.50;99.90
34646;DHT22;20857;47.808;12.482;2022-07-29T00:06:34;19.50;99.90
34646;DHT22;20857;47.808;12.482;2022-07-29T00:09:00;19.50;99.90
34646;DHT22;20857;47.808;12.482;2022-07-29T00:11:25;19.50;99.90
34646;DHT22;20857;47.808;12.482;2022-07-29T00:13:51;19.50;99.90
34646;DHT22;20857;47.808;12.482;2022-07-29T00:16:17;19.40;99.90
34646;DHT22;20857;47.808;12.482;2022-07-29T00:18:42;19.40;99.90
34646;DHT22;20857;47.808;12.482;2022-07-29T00:21:08;19.40;99.90
34646;DHT22;20857;47.808;12.482;2022-07-29T00:23:34;19.40;99.90
34646;DHT22;20857;47.808;12.482;2022-07-29T00:25:59;19.40;99.90
34646;DHT22;20857;47.808;12.482;2022-07-29T00:28:25;19.30;99.90
34646;DHT22;20857;47.808;12.482;2022-07-29T00:30:51;19.20;99.90
34646;DHT22;20857;47.808;12.482;2022-07-29T00:33:16;19.20;99.90
34646;DHT22;20857;47.808;12.482;2022-07-29T00:35:42;19.20;99.90
34646;DHT22;20857;47.808;12.482;2022-07-29T00:38:13;19.10;99.90
34646;DHT22;20857;47.808;12.482;2022-07-29T00:40:39;19.10;99.90
34646;DHT22;20857;47.808;12.482;2022-07-29T00:43:05;19.10;99.90
34646;DHT22;20857;47.808;12.482;2022-07-29T00:45:31;19.10;99.90
34646;DHT22;20857;47.808;12.482;2022-07-29T00:47:57;19.00;99.90
34646;DHT22;20857;47.808;12.482;2022-07-29T00:50:23;19.00;99.90
34646;DHT22;20857;47.808;12.482;2022-07-29T00:52:48;19.00;99.90
34646;DHT22;20857;47.808;12.482;2022-07-29T00:55:15;18.90;99.90
34646;DHT22;20857;47.808;12.482;2022-07-29T00:57:42;18.90;99.90
34646;DHT22;20857;47.808;12.482;2022-07-29T01:00:12;18.90;99.90
34646;DHT22;20857;47.808;12.482;2022-07-29T01:02:37;18.90;99.90
34646;DHT22;20857;47.808;12.482;2022-07-29T01:05:04;18.90;99.90
34646;DHT22;20857;47.808;12.482;2022-07-29T01:07:32;18.90;99.90
34646;DHT22;20857;47.808;12.482;2022-07-29T01:09:58;18.90;99.90
34646;DHT22;20857;47.808;12.482;2022-07-29T01:12:26;18.90;99.90
34646;DHT22;20857;47.808;12.482;2022-07-29T01:14:53;18.90;99.90
34646;DHT22;20857;47.808;12.482;2022-07-29T01:22:42;18.80;99.90
34646;DHT22;20857;47.808;12.482;2022-07-29T01:30:25;18.80;99.90
34646;DHT22;20857;47.808;12.482;2022-07-29T01:32:58;18.80;99.90
34646;DHT22;20857;47.808;12.482;2022-07-29T01:35:28;18.80;99.90
34646;DHT22;20857;47.808;12.482;2022-07-29T01:40:45;18.90;99.90
34646;DHT22;20857;47.808;12.482;2022-07-29T01:43:23;18.90;99.90
34646;DHT22;20857;47.808;12.482;2022-07-29T01:45:59;18.90;99.90
34646;DHT22;20857;47.808;12.482;2022-07-29T01:48:45;18.90;99.90
34646;DHT22;20857;47.808;12.482;2022-07-29T01:51:37;18.90;99.90
34646;DHT22;20857;47.808;12.482;2022-07-29T01:54:10;18.90;99.90
34646;DHT22;20857;47.808;12.482;2022-07-29T01:56:39;18.90;99.90
34646;DHT22;20857;47.808;12.482;2022-07-29T01:59:07;18.90;99.90
34646;DHT22;20857;47.808;12.482;2022-07-29T02:01:34;18.90;99.90
34646;DHT22;20857;47.808;12.482;2022-07-29T02:04:05;18.90;99.90
34646;DHT22;20857;47.808;12.482;2022-07-29T02:06:33;18.90;99.90
34646;DHT22;20857;47.808;12.482;2022-07-29T02:09:00;18.90;99.90
34646;DHT22;20857;47.808;12.482;2022-07-29T02:11:27;18.80;99.90
34646;DHT22;20857;47.808;12.482;2022-07-29T02:13:54;18.80;99.90
34646;DHT22;20857;47.808;12.482;2022-07-29T02:16:22;18.90;99.90
34646;DHT22;20857;47.808;12.482;2022-07-29T02:18:52;18.80;99.90
34646;DHT22;20857;47.808;12.482;2022-07-29T02:21:23;18.80;99.90
34646;DHT22;20857;47.808;12.482;2022-07-29T02:23:50;18.80;99.90
34646;DHT22;20857;47.808;12.482;2022-07-29T02:26:19;18.80;99.90
34646;DHT22;20857;47.808;12.482;2022-07-29T02:28:46;18.60;99.90
34646;DHT22;20857;47.808;12.482;2022-07-29T02:31:13;18.70;99.90
34646;DHT22;20857;47.808;12.482;2022-07-29T02:33:40;18.60;99.90
34646;DHT22;20857;47.808;12.482;2022-07-29T02:36:06;18.60;99.90
34646;DHT22;20857;47.808;12.482;2022-07-29T02:38:34;18.50;99.90
34646;DHT22;20857;47.808;12.482;2022-07-29T02:41:37;18.50;99.90
34646;DHT22;20857;47.808;12.482;2022-07-29T02:44:10;18.40;99.90
34646;DHT22;20857;47.808;12.482;2022-07-29T02:46:39;18.40;99.90
34646;DHT22;20857;47.808;12.482;2022-07-29T02:49:22;18.40;99.90
34646;DHT22;20857;47.808;12.482;2022-07-29T02:51:58;18.30;99.90
34646;DHT22;20857;47.808;12.482;2022-07-29T02:56:54;18.20;99.90
34646;DHT22;20857;47.808;12.482;2022-07-29T02:59:25;18.20;99.90
34646;DHT22;20857;47.808;12.482;2022-07-29T03:01:52;18.20;99.90
34646;DHT22;20857;47.808;12.482;2022-07-29T03:04:19;18.30;99.90
34646;DHT22;20857;47.808;12.482;2022-07-29T03:06:47;18.30;99.90
34646;DHT22;20857;47.808;12.482;2022-07-29T03:09:14;18.30;99.90
34646;DHT22;20857;47.808;12.482;2022-07-29T03:11:41;18.40;99.90
34646;DHT22;20857;47.808;12.482;2022-07-29T03:14:07;18.40;99.90
34646;DHT22;20857;47.808;12.482;2022-07-29T03:16:34;18.50;99.90
34646;DHT22;20857;47.808;12.482;2022-07-29T03:19:02;18.50;99.90
34646;DHT22;20857;47.808;12.482;2022-07-29T03:21:28;18.60;99.90
34646;DHT22;20857;47.808;12.482;2022-07-29T03:23:54;18.60;99.90
34646;DHT22;20857;47.808;12.482;2022-07-29T03:26:19;18.60;99.90
34646;DHT22;20857;47.808;12.482;2022-07-29T03:28:45;18.60;99.90
34646;DHT22;20857;47.808;12.482;2022-07-29T03:31:10;18.60;99.90
34646;DHT22;20857;47.808;12.482;2022-07-29T03:33:36;18.70;99.90
34646;DHT22;20857;47.808;12.482;2022-07-29T03:36:02;18.70;99.90
34646;DHT22;20857;47.808;12.482;2022-07-29T03:38:30;18.70;99.90
34646;DHT22;20857;47.808;12.482;2022-07-29T03:41:01;18.70;99.90
34646;DHT22;20857;47.808;12.482;2022-07-29T03:43:31;18.60;99.90
34646;DHT22;20857;47.808;12.482;2022-07-29T03:45:57;18.60;99.90
34646;DHT22;20857;47.808;12.482;2022-07-29T03:48:25;18.60;99.90
34646;DHT22;20857;47.808;12.482;2022-07-29T03:50:51;18.50;99.90
34646;DHT22;20857;47.808;12.482;2022-07-29T03:53:17;18.50;99.90
34646;DHT22;20857;47.808;12.482;2022-07-29T03:55:47;18.40;99.90
34646;DHT22;20857;47.808;12.482;2022-07-29T03:58:14;18.40;99.90
34646;DHT22;20857;47.808;12.482;2022-07-29T04:00:42;18.40;99.90
34646;DHT22;20857;47.808;12.482;2022-07-29T04:03:08;18.40;99.90
34646;DHT22;20857;47.808;12.482;2022-07-29T04:05:34;18.30;99.90
34646;DHT22;20857;47.808;12.482;2022-07-29T04:08:00;18.40;99.90
34646;DHT22;20857;47.808;12.482;2022-07-29T04:10:26;18.40;99.90
34646;DHT22;20857;47.808;12.482;2022-07-29T04:12:51;18.40;99.90
34646;DHT22;20857;47.808;12.482;2022-07-29T04:15:18;18.40;99.90
34646;DHT22;20857;47.808;12.482;2022-07-29T04:17:43;18.40;99.90
34646;DHT22;20857;47.808;12.482;2022-07-29T04:20:09;18.40;99.90
34646;DHT22;20857;47.808;12.482;2022-07-29T04:22:37;18.40;99.90
34646;DHT22;20857;47.808;12.482;2022-07-29T04:25:03;18.30;99.90
34646;DHT22;20857;47.808;12.482;2022-07-29T04:27:29;18.40;99.90
34646;DHT22;20857;47.808;12.482;2022-07-29T04:29:55;18.50;99.90
34646;DHT22;20857;47.808;12.482;2022-07-29T04:32:20;18.50;99.90
34646;DHT22;20857;47.808;12.482;2022-07-29T04:34:46;18.50;99.90
34646;DHT22;20857;47.808;12.482;2022-07-29T04:37:12;18.50;99.90
34646;DHT22;20857;47.808;12.482;2022-07-29T04:39:37;18.60;99.90
34646;DHT22;20857;47.808;12.482;2022-07-29T04:42:03;18.60;99.90
34646;DHT22;20857;47.808;12.482;2022-07-29T04:44:29;18.50;99.90
34646;DHT22;20857;47.808;12.482;2022-07-29T04:46:55;18.60;99.90
34646;DHT22;20857;47.808;12.482;2022-07-29T04:49:21;18.60;99.90
34646;DHT22;20857;47.808;12.482;2022-07-29T04:51:47;18.60;99.90
34646;DHT22;20857;47.808;12.482;2022-07-29T04:54:13;18.70;99.90
34646;DHT22;20857;47.808;12.482;2022-07-29T04:56:39;18.90;99.90
34646;DHT22;20857;47.808;12.482;2022-07-29T04:59:04;19.10;99.90
34646;DHT22;20857;47.808;12.482;2022-07-29T05:01:30;19.20;99.90
34646;DHT22;20857;47.808;12.482;2022-07-29T05:03:55;19.30;99.90
34646;DHT22;20857;47.808;12.482;2022-07-29T05:06:21;19.40;99.90
34646;DHT22;20857;47.808;12.482;2022-07-29T05:08:46;19.50;99.90
34646;DHT22;20857;47.808;12.482;2022-07-29T05:11:12;19.50;99.90
34646;DHT22;20857;47.808;12.482;2022-07-29T05:13:38;19.50;99.90
34646;DHT22;20857;47.808;12.482;2022-07-29T05:16:03;19.50;99.90
34646;DHT22;20857;47.808;12.482;2022-07-29T05:18:29;19.50;99.90
34646;DHT22;20857;47.808;12.482;2022-07-29T05:20:55;19.40;99.90
34646;DHT22;20857;47.808;12.482;2022-07-29T05:23:20;19.40;99.90
34646;DHT22;20857;47.808;12.482;2022-07-29T05:25:46;19.30;99.90
34646;DHT22;20857;47.808;12.482;2022-07-29T05:28:12;19.40;99.90
34646;DHT22;20857;47.808;12.482;2022-07-29T05:30:38;19.40;99.90
34646;DHT22;20857;47.808;12.482;2022-07-29T05:33:03;19.40;99.90
34646;DHT22;20857;47.808;12.482;2022-07-29T05:35:29;19.40;99.90
34646;DHT22;20857;47.808;12.482;2022-07-29T05:37:55;19.50;99.90
34646;DHT22;20857;47.808;12.482;2022-07-29T05:40:20;19.50;99.90
34646;DHT22;20857;47.808;12.482;2022-07-29T05:42:46;19.60;99.90
34646;DHT22;20857;47.808;12.482;2022-07-29T05:45:12;19.70;99.90
34646;DHT22;20857;47.808;12.482;2022-07-29T05:47:38;19.80;99.90
34646;DHT22;20857;47.808;12.482;2022-07-29T05:50:04;19.80;99.90
34646;DHT22;20857;47.808;12.482;2022-07-29T05:52:30;19.80;99.90
34646;DHT22;20857;47.808;12.482;2022-07-29T05:54:55;19.80;99.90
34646;DHT22;20857;47.808;12.482;2022-07-29T05:57:23;19.80;99.90
34646;DHT22;20857;47.808;12.482;2022-07-29T05:59:51;19.80;99.90
34646;DHT22;20857;47.808;12.482;2022-07-29T06:02:17;19.90;99.90
34646;DHT22;20857;47.808;12.482;2022-07-29T06:04:43;19.80;99.90
34646;DHT22;20857;47.808;12.482;2022-07-29T06:07:09;19.90;99.90
34646;DHT22;20857;47.808;12.482;2022-07-29T06:09:34;19.90;99.90
34646;DHT22;20857;47.808;12.482;2022-07-29T06:12:00;20.00;99.90
34646;DHT22;20857;47.808;12.482;2022-07-29T06:14:26;20.00;99.90
34646;DHT22;20857;47.808;12.482;2022-07-29T06:16:52;20.00;99.90
34646;DHT22;20857;47.808;12.482;2022-07-29T06:19:18;20.00;99.90
34646;DHT22;20857;47.808;12.482;2022-07-29T06:21:44;20.00;99.90
34646;DHT22;20857;47.808;12.482;2022-07-29T06:24:11;20.00;99.90
34646;DHT22;20857;47.808;12.482;2022-07-29T06:26:38;20.00;99.90
34646;DHT22;20857;47.808;12.482;2022-07-29T06:29:03;20.00;99.90
34646;DHT22;20857;47.808;12.482;2022-07-29T06:31:29;20.00;99.90
34646;DHT22;20857;47.808;12.482;2022-07-29T06:33:55;20.00;99.90
34646;DHT22;20857;47.808;12.482;2022-07-29T06:36:20;20.00;99.90
34646;DHT22;20857;47.808;12.482;2022-07-29T06:38:46;20.00;99.90
34646;DHT22;20857;47.808;12.482;2022-07-29T06:41:12;20.00;99.90
34646;DHT22;20857;47.808;12.482;2022-07-29T06:43:42;19.90;99.90
34646;DHT22;20857;47.808;12.482;2022-07-29T06:46:13;19.80;99.90
34646;DHT22;20857;47.808;12.482;2022-07-29T06:48:39;19.80;99.90
34646;DHT22;20857;47.808;12.482;2022-07-29T06:51:06;19.90;99.90
34646;DHT22;20857;47.808;12.482;2022-07-29T06:53:32;19.90;99.90
34646;DHT22;20857;47.808;12.482;2022-07-29T06:55:59;19.90;99.90
34646;DHT22;20857;47.808;12.482;2022-07-29T06:58:26;20.10;99.90
34646;DHT22;20857;47.808;12.482;2022-07-29T07:00:53;20.30;99.90
34646;DHT22;20857;47.808;12.482;2022-07-29T07:03:18;20.50;99.90
34646;DHT22;20857;47.808;12.482;2022-07-29T07:05:44;20.70;99.90
34646;DHT22;20857;47.808;12.482;2022-07-29T07:08:11;21.00;99.90
34646;DHT22;20857;47.808;12.482;2022-07-29T07:10:37;21.20;99.90
34646;DHT22;20857;47.808;12.482;2022-07-29T07:13:04;21.40;99.90
34646;DHT22;20857;47.808;12.482;2022-07-29T07:15:29;21.40;99.90
34646;DHT22;20857;47.808;12.482;2022-07-29T07:17:55;21.70;99.90
34646;DHT22;20857;47.808;12.482;2022-07-29T07:20:21;22.00;99.90
34646;DHT22;20857;47.808;12.482;2022-07-29T07:22:46;22.30;99.90
34646;DHT22;20857;47.808;12.482;2022-07-29T07:25:12;22.70;99.90
34646;DHT22;20857;47.808;12.482;2022-07-29T07:27:38;22.90;99.90
34646;DHT22;20857;47.808;12.482;2022-07-29T07:30:06;23.00;99.90
34646;DHT22;20857;47.808;12.482;2022-07-29T07:32:35;23.20;99.90
34646;DHT22;20857;47.808;12.482;2022-07-29T07:35:02;23.20;99.90
34646;DHT22;20857;47.808;12.482;2022-07-29T07:37:28;23.10;99.90
34646;DHT22;20857;47.808;12.482;2022-07-29T07:39:54;23.20;99.90
34646;DHT22;20857;47.808;12.482;2022-07-29T07:42:20;23.20;99.90
34646;DHT22;20857;47.808;12.482;2022-07-29T07:44:46;23.30;99.90
34646;DHT22;20857;47.808;12.482;2022-07-29T07:47:13;23.40;99.90
34646;DHT22;20857;47.808;12.482;2022-07-29T07:49:39;23.60;99.90
34646;DHT22;20857;47.808;12.482;2022-07-29T07:52:05;23.60;99.90
34646;DHT22;20857;47.808;12.482;2022-07-29T07:54:32;23.60;99.90
34646;DHT22;20857;47.808;12.482;2022-07-29T07:56:58;23.80;99.90
34646;DHT22;20857;47.808;12.482;2022-07-29T07:59:23;23.80;99.90
34646;DHT22;20857;47.808;12.482;2022-07-29T08:01:51;24.00;99.90
34646;DHT22;20857;47.808;12.482;2022-07-29T08:04:56;24.10;99.90
34646;DHT22;20857;47.808;12.482;2022-07-29T08:07:21;24.20;99.90
34646;DHT22;20857;47.808;12.482;2022-07-29T08:09:47;24.00;99.90
34646;DHT22;20857;47.808;12.482;2022-07-29T08:12:17;24.10;99.90
34646;DHT22;20857;47.808;12.482;2022-07-29T08:14:42;24.00;99.90
34646;DHT22;20857;47.808;12.482;2022-07-29T08:17:08;24.00;99.90
34646;DHT22;20857;47.808;12.482;2022-07-29T08:19:33;24.10;99.90
34646;DHT22;20857;47.808;12.482;2022-07-29T08:21:59;24.30;99.90
34646;DHT22;20857;47.808;12.482;2022-07-29T08:24:25;24.50;99.90
34646;DHT22;20857;47.808;12.482;2022-07-29T08:27:13;24.40;99.90
34646;DHT22;20857;47.808;12.482;2022-07-29T08:29:39;24.10;99.90
34646;DHT22;20857;47.808;12.482;2022-07-29T08:32:05;24.00;99.90
34646;DHT22;20857;47.808;12.482;2022-07-29T08:34:54;24.00;99.90
34646;DHT22;20857;47.808;12.482;2022-07-29T08:37:19;24.00;99.90
34646;DHT22;20857;47.808;12.482;2022-07-29T08:39:45;24.10;99.90
34646;DHT22;20857;47.808;12.482;2022-07-29T08:42:11;24.10;99.90
34646;DHT22;20857;47.808;12.482;2022-07-29T08:44:37;24.20;99.90
34646;DHT22;20857;47.808;12.482;2022-07-29T08:47:03;24.30;99.90
34646;DHT22;20857;47.808;12.482;2022-07-29T08:49:30;24.40;99.90
34646;DHT22;20857;47.808;12.482;2022-07-29T08:51:57;24.40;99.90
34646;DHT22;20857;47.808;12.482;2022-07-29T08:54:23;24.50;99.90
34646;DHT22;20857;47.808;12.482;2022-07-29T08:56:50;24.70;99.90
34646;DHT22;20857;47.808;12.482;2022-07-29T08:59:19;24.80;99.90
34646;DHT22;20857;47.808;12.482;2022-07-29T09:01:47;25.00;99.90
34646;DHT22;20857;47.808;12.482;2022-07-29T09:04:13;25.00;99.90
34646;DHT22;20857;47.808;12.482;2022-07-29T09:06:47;25.10;99.90
34646;DHT22;20857;47.808;12.482;2022-07-29T09:09:13;25.00;99.90
34646;DHT22;20857;47.808;12.482;2022-07-29T09:11:40;25.10;99.90
34646;DHT22;20857;47.808;12.482;2022-07-29T09:14:07;25.20;99.90
34646;DHT22;20857;47.808;12.482;2022-07-29T09:16:52;25.40;99.90
34646;DHT22;20857;47.808;12.482;2022-07-29T09:19:28;25.40;99.90
34646;DHT22;20857;47.808;12.482;2022-07-29T09:21:55;25.40;99.90
34646;DHT22;20857;47.808;12.482;2022-07-29T09:24:42;25.40;99.90
34646;DHT22;20857;47.808;12.482;2022-07-29T09:27:23;25.60;99.90
34646;DHT22;20857;47.808;12.482;2022-07-29T09:30:03;25.80;99.90
34646;DHT22;20857;47.808;12.482;2022-07-29T09:32:30;25.80;99.90
34646;DHT22;20857;47.808;12.482;2022-07-29T09:35:19;26.00;99.90
34646;DHT22;20857;47.808;12.482;2022-07-29T09:37:46;26.10;99.90
34646;DHT22;20857;47.808;12.482;2022-07-29T09:40:19;26.30;99.90
34646;DHT22;20857;47.808;12.482;2022-07-29T09:42:45;26.50;99.90
34646;DHT22;20857;47.808;12.482;2022-07-29T09:45:13;26.60;99.90
34646;DHT22;20857;47.808;12.482;2022-07-29T09:47:52;26.90;99.90
34646;DHT22;20857;47.808;12.482;2022-07-29T09:50:17;26.80;99.90
34646;DHT22;20857;47.808;12.482;2022-07-29T09:52:52;26.80;99.50
34646;DHT22;20857;47.808;12.482;2022-07-29T09:55:20;26.80;99.40
34646;DHT22;20857;47.808;12.482;2022-07-29T09:57:47;26.70;99.10
34646;DHT22;20857;47.808;12.482;2022-07-29T10:00:14;26.90;99.90
34646;DHT22;20857;47.808;12.482;2022-07-29T10:02:43;27.00;99.70
34646;DHT22;20857;47.808;12.482;2022-07-29T10:05:22;27.00;99.90
34646;DHT22;20857;47.808;12.482;2022-07-29T10:07:54;26.80;99.60
34646;DHT22;20857;47.808;12.482;2022-07-29T10:10:28;26.60;99.40
34646;DHT22;20857;47.808;12.482;2022-07-29T10:12:56;26.30;99.90
34646;DHT22;20857;47.808;12.482;2022-07-29T10:15:27;26.20;99.90
34646;DHT22;20857;47.808;12.482;2022-07-29T10:17:55;26.20;99.90
34646;DHT22;20857;47.808;12.482;2022-07-29T10:20:22;26.00;99.90
34646;DHT22;20857;47.808;12.482;2022-07-29T10:22:49;25.80;99.90
34646;DHT22;20857;47.808;12.482;2022-07-29T10:25:16;25.90;99.90
34646;DHT22;20857;47.808;12.482;2022-07-29T10:27:44;25.80;99.90
34646;DHT22;20857;47.808;12.482;2022-07-29T10:30:11;25.70;99.90
34646;DHT22;20857;47.808;12.482;2022-07-29T10:33:05;25.90;99.90
34646;DHT22;20857;47.808;12.482;2022-07-29T10:35:48;25.90;99.90
34646;DHT22;20857;47.808;12.482;2022-07-29T10:43:51;25.60;99.90
34646;DHT22;20857;47.808;12.482;2022-07-29T10:46:17;25.80;99.90
34646;DHT22;20857;47.808;12.482;2022-07-29T10:51:57;25.90;99.90
34646;DHT22;20857;47.808;12.482;2022-07-29T10:54:43;26.10;99.90
34646;DHT22;20857;47.808;12.482;2022-07-29T10:59:39;26.20;99.90
34646;DHT22;20857;47.808;12.482;2022-07-29T11:04:59;26.20;99.10
34646;DHT22;20857;47.808;12.482;2022-07-29T11:07:26;26.00;99.90
34646;DHT22;20857;47.808;12.482;2022-07-29T11:10:30;26.40;99.90
34646;DHT22;20857;47.808;12.482;2022-07-29T11:12:55;26.60;99.90
34646;DHT22;20857;47.808;12.482;2022-07-29T11:15:22;26.80;99.90
34646;DHT22;20857;47.808;12.482;2022-07-29T11:20:43;27.00;99.60
34646;DHT22;20857;47.808;12.482;2022-07-29T11:23:32;27.00;98.40
34646;DHT22;20857;47.808;12.482;2022-07-29T11:28:54;26.90;98.90
34646;DHT22;20857;47.808;12.482;2022-07-29T11:33:56;26.90;99.90
34646;DHT22;20857;47.808;12.482;2022-07-29T11:36:22;27.00;98.80
34646;DHT22;20857;47.808;12.482;2022-07-29T11:38:47;27.00;99.90
34646;DHT22;20857;47.808;12.482;2022-07-29T11:41:23;26.80;98.10
34646;DHT22;20857;47.808;12.482;2022-07-29T11:43:59;26.80;99.60
34646;DHT22;20857;47.808;12.482;2022-07-29T11:46:47;27.40;99.90
34646;DHT22;20857;47.808;12.482;2022-07-29T11:49:22;27.50;99.60
34646;DHT22;20857;47.808;12.482;2022-07-29T11:51:52;27.50;99.40
34646;DHT22;20857;47.808;12.482;2022-07-29T11:54:24;27.10;99.40
34646;DHT22;20857;47.808;12.482;2022-07-29T11:56:51;26.60;99.20
34646;DHT22;20857;47.808;12.482;2022-07-29T11:59:17;26.30;99.80
34646;DHT22;20857;47.808;12.482;2022-07-29T12:02:01;26.10;99.60
34646;DHT22;20857;47.808;12.482;2022-07-29T12:04:56;26.00;99.80
34646;DHT22;20857;47.808;12.482;2022-07-29T12:07:32;26.20;99.90
34646;DHT22;20857;47.808;12.482;2022-07-29T12:09:58;26.80;99.30
34646;DHT22;20857;47.808;12.482;2022-07-29T12:12:24;27.20;98.50
34646;DHT22;20857;47.808;12.482;2022-07-29T12:14:50;27.70;98.60
34646;DHT22;20857;47.808;12.482;2022-07-29T12:17:32;28.10;99.10
34646;DHT22;20857;47.808;12.482;2022-07-29T12:20:00;27.90;99.00
34646;DHT22;20857;47.808;12.482;2022-07-29T12:22:30;28.60;99.20
34646;DHT22;20857;47.808;12.482;2022-07-29T12:25:01;28.60;97.50
34646;DHT22;20857;47.808;12.482;2022-07-29T12:27:27;29.00;98.50
34646;DHT22;20857;47.808;12.482;2022-07-29T12:29:58;28.60;98.00
34646;DHT22;20857;47.808;12.482;2022-07-29T12:32:46;29.10;99.90
34646;DHT22;20857;47.808;12.482;2022-07-29T12:35:14;29.20;96.80
34646;DHT22;20857;47.808;12.482;2022-07-29T12:37:42;29.50;97.40
34646;DHT22;20857;47.808;12.482;2022-07-29T12:40:10;29.30;96.30
34646;DHT22;20857;47.808;12.482;2022-07-29T12:42:37;29.60;97.30
34646;DHT22;20857;47.808;12.482;2022-07-29T12:45:03;30.00;95.70
34646;DHT22;20857;47.808;12.482;2022-07-29T12:47:29;29.40;95.20
34646;DHT22;20857;47.808;12.482;2022-07-29T12:50:10;30.00;96.80
34646;DHT22;20857;47.808;12.482;2022-07-29T12:52:36;31.20;94.70
34646;DHT22;20857;47.808;12.482;2022-07-29T12:55:03;31.80;94.80
34646;DHT22;20857;47.808;12.482;2022-07-29T12:57:29;31.60;95.10
34646;DHT22;20857;47.808;12.482;2022-07-29T13:02:33;30.30;96.10
34646;DHT22;20857;47.808;12.482;2022-07-29T13:05:00;30.00;95.30
34646;DHT22;20857;47.808;12.482;2022-07-29T13:07:28;30.60;94.90
34646;DHT22;20857;47.808;12.482;2022-07-29T13:10:19;31.20;94.60
34646;DHT22;20857;47.808;12.482;2022-07-29T13:16:07;30.00;95.80
34646;DHT22;20857;47.808;12.482;2022-07-29T13:21:18;28.20;95.60
34646;DHT22;20857;47.808;12.482;2022-07-29T13:27:18;28.20;96.80
34646;DHT22;20857;47.808;12.482;2022-07-29T13:29:44;29.70;96.30
34646;DHT22;20857;47.808;12.482;2022-07-29T13:34:45;32.50;93.50
34646;DHT22;20857;47.808;12.482;2022-07-29T13:37:11;33.00;92.40
34646;DHT22;20857;47.808;12.482;2022-07-29T13:39:37;33.40;93.50
34646;DHT22;20857;47.808;12.482;2022-07-29T13:42:04;33.20;92.20
34646;DHT22;20857;47.808;12.482;2022-07-29T13:44:29;32.60;92.40
34646;DHT22;20857;47.808;12.482;2022-07-29T13:46:55;32.60;91.50
34646;DHT22;20857;47.808;12.482;2022-07-29T13:49:21;33.10;91.60
34646;DHT22;20857;47.808;12.482;2022-07-29T13:51:48;33.00;91.70
34646;DHT22;20857;47.808;12.482;2022-07-29T13:54:14;33.60;93.50
34646;DHT22;20857;47.808;12.482;2022-07-29T13:56:39;34.40;93.10
34646;DHT22;20857;47.808;12.482;2022-07-29T13:59:05;33.80;90.20
34646;DHT22;20857;47.808;12.482;2022-07-29T14:01:31;34.50;89.60
34646;DHT22;20857;47.808;12.482;2022-07-29T14:03:56;35.00;90.90
34646;DHT22;20857;47.808;12.482;2022-07-29T14:06:22;35.00;90.40
34646;DHT22;20857;47.808;12.482;2022-07-29T14:08:49;35.10;90.30
34646;DHT22;20857;47.808;12.482;2022-07-29T14:11:14;34.20;87.70
34646;DHT22;20857;47.808;12.482;2022-07-29T14:13:40;34.70;86.30
34646;DHT22;20857;47.808;12.482;2022-07-29T14:16:05;34.70;88.40
34646;DHT22;20857;47.808;12.482;2022-07-29T14:18:32;34.00;89.60
34646;DHT22;20857;47.808;12.482;2022-07-29T14:20:58;34.10;88.80
34646;DHT22;20857;47.808;12.482;2022-07-29T14:23:24;33.20;89.10
34646;DHT22;20857;47.808;12.482;2022-07-29T14:25:49;32.10;90.20
34646;DHT22;20857;47.808;12.482;2022-07-29T14:28:15;30.60;90.20
34646;DHT22;20857;47.808;12.482;2022-07-29T14:30:41;30.40;90.70
34646;DHT22;20857;47.808;12.482;2022-07-29T14:33:06;31.20;90.90
34646;DHT22;20857;47.808;12.482;2022-07-29T14:35:33;32.50;89.60
34646;DHT22;20857;47.808;12.482;2022-07-29T14:37:58;32.60;88.50
34646;DHT22;20857;47.808;12.482;2022-07-29T14:40:24;33.10;87.40
34646;DHT22;20857;47.808;12.482;2022-07-29T14:42:52;34.00;85.40
34646;DHT22;20857;47.808;12.482;2022-07-29T14:45:17;34.00;86.30
34646;DHT22;20857;47.808;12.482;2022-07-29T14:47:43;34.40;87.30
34646;DHT22;20857;47.808;12.482;2022-07-29T14:50:09;35.00;84.70
34646;DHT22;20857;47.808;12.482;2022-07-29T14:52:35;34.30;86.00
34646;DHT22;20857;47.808;12.482;2022-07-29T14:55:01;32.80;89.60
34646;DHT22;20857;47.808;12.482;2022-07-29T14:57:27;30.80;88.90
34646;DHT22;20857;47.808;12.482;2022-07-29T14:59:53;29.20;91.20
34646;DHT22;20857;47.808;12.482;2022-07-29T15:02:20;28.40;92.60
34646;DHT22;20857;47.808;12.482;2022-07-29T15:04:45;27.80;92.40
34646;DHT22;20857;47.808;12.482;2022-07-29T15:07:13;27.60;92.50
34646;DHT22;20857;47.808;12.482;2022-07-29T15:09:39;27.50;91.70
34646;DHT22;20857;47.808;12.482;2022-07-29T15:12:05;27.30;92.30
34646;DHT22;20857;47.808;12.482;2022-07-29T15:14:31;27.30;92.60
34646;DHT22;20857;47.808;12.482;2022-07-29T15:16:57;27.40;92.50
34646;DHT22;20857;47.808;12.482;2022-07-29T15:19:23;27.50;93.90
34646;DHT22;20857;47.808;12.482;2022-07-29T15:21:48;27.30;92.80
34646;DHT22;20857;47.808;12.482;2022-07-29T15:24:17;27.20;93.50
34646;DHT22;20857;47.808;12.482;2022-07-29T15:26:43;27.20;92.30
34646;DHT22;20857;47.808;12.482;2022-07-29T15:29:09;27.10;92.30
34646;DHT22;20857;47.808;12.482;2022-07-29T15:31:35;26.80;92.10
34646;DHT22;20857;47.808;12.482;2022-07-29T15:34:00;26.80;93.00
34646;DHT22;20857;47.808;12.482;2022-07-29T15:36:26;26.90;93.20
34646;DHT22;20857;47.808;12.482;2022-07-29T15:38:53;26.90;92.50
34646;DHT22;20857;47.808;12.482;2022-07-29T15:41:19;26.90;92.10
34646;DHT22;20857;47.808;12.482;2022-07-29T15:43:45;26.90;92.60
34646;DHT22;20857;47.808;12.482;2022-07-29T15:46:14;26.70;92.90
34646;DHT22;20857;47.808;12.482;2022-07-29T15:48:59;26.70;93.40
34646;DHT22;20857;47.808;12.482;2022-07-29T15:51:25;26.60;93.90
34646;DHT22;20857;47.808;12.482;2022-07-29T15:53:50;26.30;93.70
34646;DHT22;20857;47.808;12.482;2022-07-29T15:56:16;26.30;93.90
34646;DHT22;20857;47.808;12.482;2022-07-29T15:58:42;26.30;95.00
34646;DHT22;20857;47.808;12.482;2022-07-29T16:01:08;26.20;93.90
34646;DHT22;20857;47.808;12.482;2022-07-29T16:03:34;26.20;96.10
34646;DHT22;20857;47.808;12.482;2022-07-29T16:05:59;26.10;94.00
34646;DHT22;20857;47.808;12.482;2022-07-29T16:08:25;26.00;94.50
34646;DHT22;20857;47.808;12.482;2022-07-29T16:10:52;26.00;95.20
34646;DHT22;20857;47.808;12.482;2022-07-29T16:13:17;25.90;94.80
34646;DHT22;20857;47.808;12.482;2022-07-29T16:15:44;25.70;95.30